createdAt,value
2017-12-17T00:01:14.910Z,10.85
2017-12-17T00:03:42.481Z,9.82
2017-12-17T00:06:10.060Z,12.05
2017-12-17T00:08:37.593Z,10.57
2017-12-17T00:11:05.128Z,10.93
2017-12-17T00:13:32.707Z,11.45
2017-12-17T00:16:00.244Z,9.63
2017-12-17T00:18:27.777Z,11.18
2017-12-17T00:20:56.154Z,9.55
2017-12-17T00:23:23.735Z,10.35
2017-12-17T00:25:51.312Z,11.27
2017-12-17T00:28:18.855Z,12.30
2017-12-17T00:30:47.196Z,10.73
2017-12-17T00:33:14.779Z,10.20
2017-12-17T00:35:43.164Z,10.65
2017-12-17T00:38:11.464Z,11.07
2017-12-17T00:40:39.037Z,10.07
2017-12-17T00:43:06.609Z,11.93
2017-12-17T00:45:34.143Z,11.40
2017-12-17T00:48:01.716Z,11.40
2017-12-17T00:50:29.243Z,9.98
2017-12-17T00:52:57.552Z,10.55
2017-12-17T00:55:25.126Z,10.85
2017-12-17T00:57:52.693Z,10.13
2017-12-17T01:00:20.277Z,10.82
2017-12-17T01:02:47.816Z,10.05
2017-12-17T01:05:15.404Z,9.40
2017-12-17T01:07:42.927Z,9.98
2017-12-17T01:10:10.460Z,11.05
2017-12-17T01:12:38.056Z,10.30
2017-12-17T01:15:05.585Z,9.75
2017-12-17T01:17:33.161Z,11.63
2017-12-17T01:20:00.699Z,10.55
2017-12-17T01:22:28.268Z,11.85
2017-12-17T01:24:55.802Z,12.25
2017-12-17T01:27:23.380Z,11.73
2017-12-17T01:29:50.919Z,11.55
2017-12-17T01:32:19.261Z,11.05
2017-12-17T01:34:46.800Z,14.10
2017-12-17T01:37:14.380Z,11.43
2017-12-17T01:39:42.680Z,11.27
2017-12-17T01:42:11.045Z,11.52
2017-12-17T01:44:38.581Z,10.80
2017-12-17T01:47:06.111Z,9.90
2017-12-17T01:49:33.684Z,10.75
2017-12-17T01:52:01.281Z,10.30
2017-12-17T01:54:28.815Z,12.25
2017-12-17T01:56:56.348Z,10.88
2017-12-17T01:59:23.921Z,10.60
2017-12-17T02:01:51.456Z,11.02
2017-12-17T02:04:19.035Z,10.63
2017-12-17T02:06:46.564Z,9.68
2017-12-17T02:09:14.900Z,9.43
2017-12-17T02:11:42.437Z,11.25
2017-12-17T02:14:10.008Z,9.88
2017-12-17T02:16:37.538Z,10.68
2017-12-17T02:19:05.115Z,10.95
2017-12-17T02:21:32.643Z,10.18
2017-12-17T02:24:00.990Z,10.38
2017-12-17T02:26:28.519Z,9.13
2017-12-17T02:28:56.093Z,9.50
2017-12-17T02:31:23.628Z,10.30
2017-12-17T02:33:51.228Z,9.75
2017-12-17T02:36:18.763Z,10.65
2017-12-17T02:38:46.300Z,9.85
2017-12-17T02:41:13.876Z,11.00
2017-12-17T02:43:41.419Z,9.50
2017-12-17T02:46:08.984Z,9.60
2017-12-17T02:48:36.525Z,9.98
2017-12-17T02:51:04.106Z,8.77
2017-12-17T02:53:31.635Z,9.07
2017-12-17T02:55:59.968Z,9.25
2017-12-17T02:58:27.500Z,10.20
2017-12-17T03:00:55.076Z,9.18
2017-12-17T03:03:22.605Z,9.30
2017-12-17T03:05:50.181Z,10.00
2017-12-17T03:08:17.714Z,9.40
2017-12-17T03:10:45.400Z,9.65
2017-12-17T03:13:12.986Z,9.43
2017-12-17T03:15:40.555Z,9.55
2017-12-17T03:18:08.079Z,8.52
2017-12-17T03:20:35.652Z,8.50
2017-12-17T03:23:03.188Z,8.38
2017-12-17T03:25:30.765Z,8.43
2017-12-17T03:27:58.302Z,8.95
2017-12-17T03:30:25.869Z,9.10
2017-12-17T03:32:53.404Z,9.02
2017-12-17T03:35:21.746Z,8.52
2017-12-17T03:37:49.275Z,9.68
2017-12-17T03:40:16.849Z,8.90
2017-12-17T03:42:44.386Z,9.02
2017-12-17T03:45:12.056Z,8.48
2017-12-17T03:47:39.584Z,7.80
2017-12-17T03:50:07.926Z,8.73
2017-12-17T03:52:35.465Z,8.30
2017-12-17T03:55:03.028Z,8.27
2017-12-17T03:57:30.553Z,8.63
2017-12-17T03:59:58.150Z,8.27
2017-12-17T04:02:25.687Z,8.95
2017-12-17T04:04:53.226Z,8.38
2017-12-17T04:07:20.791Z,8.20
2017-12-17T04:09:48.368Z,7.60
2017-12-17T04:12:15.900Z,8.20
2017-12-17T04:14:43.476Z,8.25
2017-12-17T04:17:11.011Z,8.38
2017-12-17T04:19:39.343Z,7.90
2017-12-17T04:22:06.879Z,9.05
2017-12-17T04:24:34.458Z,7.57
2017-12-17T04:27:01.987Z,8.05
2017-12-17T04:29:29.560Z,8.23
2017-12-17T04:31:57.087Z,9.95
2017-12-17T04:34:25.425Z,9.00
2017-12-17T04:36:52.966Z,9.32
2017-12-17T04:39:20.539Z,8.73
2017-12-17T04:41:48.079Z,8.32
2017-12-17T04:44:15.657Z,8.82
2017-12-17T04:46:43.202Z,9.13
2017-12-17T04:49:10.801Z,9.20
2017-12-17T04:51:38.333Z,9.40
2017-12-17T04:54:05.874Z,9.45
2017-12-17T04:56:33.538Z,8.82
2017-12-17T04:59:01.068Z,9.70
2017-12-17T05:01:29.412Z,9.27
2017-12-17T05:03:56.953Z,10.00
2017-12-17T05:06:24.529Z,9.00
2017-12-17T05:08:52.060Z,8.70
2017-12-17T05:11:19.632Z,9.65
2017-12-17T05:13:47.208Z,9.13
2017-12-17T05:16:14.744Z,10.20
2017-12-17T05:18:42.276Z,9.60
2017-12-17T05:21:09.856Z,9.30
2017-12-17T05:23:37.387Z,8.95
2017-12-17T05:26:04.950Z,9.55
2017-12-17T05:28:32.494Z,10.18
2017-12-17T05:31:00.835Z,9.05
2017-12-17T05:33:28.372Z,10.20
2017-12-17T05:35:55.946Z,9.35
2017-12-17T05:38:23.471Z,9.32
2017-12-17T05:40:51.036Z,9.15
2017-12-17T05:43:18.604Z,9.52
2017-12-17T05:45:46.185Z,10.73
2017-12-17T05:48:13.713Z,10.30
2017-12-17T05:50:41.286Z,8.73
2017-12-17T05:53:08.816Z,9.43
2017-12-17T05:55:37.151Z,9.85
2017-12-17T05:58:04.677Z,9.32
2017-12-17T06:00:32.260Z,10.48
2017-12-17T06:02:59.783Z,10.57
2017-12-17T06:05:27.354Z,7.72
2017-12-17T06:07:54.885Z,9.82
2017-12-17T06:10:23.225Z,10.82
2017-12-17T06:12:50.757Z,9.90
2017-12-17T06:15:18.329Z,10.27
2017-12-17T06:17:45.856Z,8.85
2017-12-17T06:20:13.429Z,8.52
2017-12-17T06:22:40.955Z,9.73
2017-12-17T06:25:09.291Z,9.35
2017-12-17T06:27:36.828Z,8.85
2017-12-17T06:30:04.405Z,10.00
2017-12-17T06:32:31.947Z,9.15
2017-12-17T06:34:59.520Z,8.82
2017-12-17T06:37:27.048Z,9.15
2017-12-17T06:39:54.612Z,9.15
2017-12-17T06:42:22.140Z,8.65
2017-12-17T06:44:50.481Z,9.50
2017-12-17T06:47:18.013Z,8.55
2017-12-17T06:49:45.589Z,9.25
2017-12-17T06:52:13.121Z,9.40
2017-12-17T06:54:40.692Z,9.02
2017-12-17T06:57:08.227Z,8.65
2017-12-17T06:59:36.563Z,7.95
2017-12-17T07:02:04.089Z,8.30
2017-12-17T07:04:31.657Z,7.95
2017-12-17T07:06:59.239Z,8.25
2017-12-17T07:09:26.776Z,7.60
2017-12-17T07:11:54.353Z,8.15
2017-12-17T07:14:21.883Z,9.10
2017-12-17T07:16:49.462Z,7.72
2017-12-17T07:19:16.996Z,8.45
2017-12-17T07:21:44.567Z,8.10
2017-12-17T07:24:12.100Z,7.95
2017-12-17T07:26:40.440Z,7.80
2017-12-17T07:29:07.971Z,8.23
2017-12-17T07:31:35.544Z,7.78
2017-12-17T07:34:03.072Z,8.52
2017-12-17T07:36:30.647Z,8.55
2017-12-17T07:38:58.208Z,9.02
2017-12-17T07:41:25.790Z,9.95
2017-12-17T07:43:53.333Z,8.60
2017-12-17T07:46:20.912Z,8.15
2017-12-17T07:48:48.441Z,8.18
2017-12-17T07:51:16.011Z,8.07
2017-12-17T07:53:43.561Z,8.45
2017-12-17T07:56:11.133Z,10.48
2017-12-17T07:58:38.669Z,8.68
2017-12-17T08:01:06.248Z,9.43
2017-12-17T08:03:33.785Z,9.68
2017-12-17T08:06:01.365Z,9.10
2017-12-17T08:08:28.891Z,8.20
2017-12-17T08:10:57.231Z,9.25
2017-12-17T08:13:24.863Z,7.97
2017-12-17T08:15:52.390Z,8.45
2017-12-17T08:18:20.727Z,9.07
2017-12-17T08:20:48.362Z,7.93
2017-12-17T08:23:15.893Z,8.02
2017-12-17T08:25:44.229Z,8.88
2017-12-17T08:28:11.761Z,7.47
2017-12-17T08:30:39.328Z,6.18
2017-12-17T08:33:06.871Z,8.90
2017-12-17T08:35:34.538Z,9.20
2017-12-17T08:38:02.063Z,8.70
2017-12-17T08:40:30.420Z,8.23
2017-12-17T08:42:57.959Z,6.90
2017-12-17T08:45:25.495Z,8.93
2017-12-17T08:47:53.059Z,9.18
2017-12-17T08:50:20.593Z,8.98
2017-12-17T08:52:48.164Z,8.40
2017-12-17T08:55:15.696Z,7.37
2017-12-17T08:57:44.032Z,10.30
2017-12-17T09:00:11.671Z,8.00
2017-12-17T09:02:39.250Z,8.95
2017-12-17T09:05:06.819Z,7.72
2017-12-17T09:07:34.470Z,7.80
2017-12-17T09:10:02.055Z,8.25
2017-12-17T09:12:29.592Z,6.85
2017-12-17T09:14:57.165Z,7.95
2017-12-17T09:17:24.896Z,7.65
2017-12-17T09:19:52.419Z,5.90
2017-12-17T09:22:20.736Z,7.85
2017-12-17T09:24:48.319Z,7.90
2017-12-17T09:27:15.850Z,7.53
2017-12-17T09:29:43.452Z,7.50
2017-12-17T09:32:10.985Z,8.73
2017-12-17T09:34:38.747Z,7.53
2017-12-17T09:37:06.311Z,7.03
2017-12-17T09:39:33.886Z,8.02
2017-12-17T09:42:01.521Z,8.27
2017-12-17T09:44:29.240Z,7.15
2017-12-17T09:46:57.574Z,7.15
2017-12-17T09:49:25.159Z,8.25
2017-12-17T09:51:52.693Z,8.07
2017-12-17T09:54:20.279Z,6.28
2017-12-17T09:56:48.480Z,8.32
2017-12-17T09:59:16.844Z,6.82
2017-12-17T10:01:44.376Z,7.50
2017-12-17T10:04:11.965Z,6.78
2017-12-17T10:06:40.271Z,7.68
2017-12-17T10:09:07.849Z,7.82
2017-12-17T10:11:35.387Z,6.78
2017-12-17T10:14:02.950Z,6.12
2017-12-17T10:16:30.486Z,6.72
2017-12-17T10:18:59.006Z,6.80
2017-12-17T10:21:26.668Z,6.18
2017-12-17T10:23:54.249Z,7.12
2017-12-17T10:26:21.781Z,6.82
2017-12-17T10:28:49.366Z,7.97
2017-12-17T10:31:16.895Z,7.47
2017-12-17T10:33:44.428Z,7.07
2017-12-17T10:36:12.763Z,6.85
2017-12-17T10:38:40.296Z,6.80
2017-12-17T10:41:07.865Z,6.37
2017-12-17T10:43:35.409Z,7.05
2017-12-17T10:46:02.986Z,7.10
2017-12-17T10:48:30.519Z,7.53
2017-12-17T10:50:58.204Z,7.22
2017-12-17T10:53:25.737Z,6.35
2017-12-17T10:55:53.308Z,6.93
2017-12-17T10:58:20.860Z,7.70
2017-12-17T11:00:48.433Z,6.28
2017-12-17T11:03:15.968Z,7.12
2017-12-17T11:05:44.313Z,7.70
2017-12-17T11:08:11.852Z,7.53
2017-12-17T11:10:39.415Z,5.90
2017-12-17T11:13:06.949Z,6.03
2017-12-17T11:15:34.517Z,6.55
2017-12-17T11:18:02.053Z,6.75
2017-12-17T11:20:29.623Z,5.22
2017-12-17T11:22:57.148Z,5.93
2017-12-17T11:25:25.493Z,6.55
2017-12-17T11:27:53.019Z,6.05
2017-12-17T11:32:54.596Z,6.20
2017-12-17T11:35:22.207Z,5.43
2017-12-17T11:37:49.735Z,6.53
2017-12-17T11:40:17.304Z,5.87
2017-12-17T11:42:44.826Z,5.35
2017-12-17T11:45:12.398Z,5.70
2017-12-17T11:47:39.969Z,4.60
2017-12-17T11:50:07.544Z,5.00
2017-12-17T11:52:35.081Z,4.40
2017-12-17T11:55:02.690Z,5.53
2017-12-17T11:57:30.224Z,3.50
2017-12-17T11:59:57.861Z,3.95
2017-12-17T12:02:25.386Z,4.12
2017-12-17T12:04:53.724Z,5.35
2017-12-17T12:07:21.293Z,4.05
2017-12-17T12:09:48.865Z,5.70
2017-12-17T12:12:16.394Z,4.65
2017-12-17T12:14:43.966Z,4.60
2017-12-17T12:17:11.543Z,4.30
2017-12-17T12:19:39.157Z,3.65
2017-12-17T12:22:06.698Z,3.17
2017-12-17T12:24:34.320Z,4.87
2017-12-17T12:27:01.914Z,4.30
2017-12-17T12:29:29.489Z,3.75
2017-12-17T12:31:57.102Z,4.05
2017-12-17T12:34:24.632Z,4.18
2017-12-17T12:36:52.204Z,4.20
2017-12-17T12:39:19.773Z,4.15
2017-12-17T12:41:47.340Z,4.47
2017-12-17T12:44:14.869Z,3.78
2017-12-17T12:46:42.439Z,4.35
2017-12-17T12:49:09.975Z,3.35
2017-12-17T12:51:37.548Z,4.35
2017-12-17T12:54:05.075Z,4.00
2017-12-17T12:56:32.681Z,4.28
2017-12-17T12:59:00.384Z,3.97
2017-12-17T13:01:28.762Z,4.70
2017-12-17T13:03:57.065Z,5.15
2017-12-17T13:06:24.688Z,5.25
2017-12-17T13:08:52.216Z,5.07
2017-12-17T13:11:19.748Z,5.03
2017-12-17T13:13:47.316Z,4.80
2017-12-17T13:16:14.892Z,5.43
2017-12-17T13:18:42.596Z,5.00
2017-12-17T13:21:10.174Z,4.90
2017-12-17T13:23:37.858Z,4.95
2017-12-17T13:26:06.039Z,5.03
2017-12-17T13:28:33.604Z,4.60
2017-12-17T13:31:01.139Z,5.05
2017-12-17T13:33:28.712Z,5.30
2017-12-17T13:35:56.251Z,4.93
2017-12-17T13:38:24.592Z,4.95
2017-12-17T13:40:52.166Z,4.78
2017-12-17T13:43:20.502Z,4.93
2017-12-17T13:45:48.075Z,4.60
2017-12-17T13:48:15.695Z,4.97
2017-12-17T13:50:43.288Z,4.35
2017-12-17T13:53:10.900Z,5.15
2017-12-17T13:55:39.233Z,4.30
2017-12-17T13:58:06.809Z,4.37
2017-12-17T14:00:34.342Z,3.85
2017-12-17T14:03:01.954Z,4.60
2017-12-17T14:05:30.248Z,4.70
2017-12-17T14:07:57.826Z,5.43
2017-12-17T14:10:25.351Z,5.53
2017-12-17T14:12:53.640Z,5.18
2017-12-17T14:15:21.212Z,5.60
2017-12-17T14:17:48.736Z,4.90
2017-12-17T14:20:17.109Z,4.50
2017-12-17T14:22:45.413Z,5.37
2017-12-17T14:25:12.980Z,4.70
2017-12-17T14:27:40.513Z,4.95
2017-12-17T14:30:08.849Z,4.68
2017-12-17T14:32:36.416Z,4.55
2017-12-17T14:35:04.030Z,5.43
2017-12-17T14:37:31.561Z,5.15
2017-12-17T14:39:59.127Z,5.10
2017-12-17T14:42:27.425Z,4.85
2017-12-17T14:44:55.000Z,5.47
2017-12-17T14:47:22.527Z,4.97
2017-12-17T14:49:50.869Z,5.40
2017-12-17T14:52:18.406Z,4.72
2017-12-17T14:54:45.979Z,4.50
2017-12-17T14:57:13.555Z,3.60
2017-12-17T14:59:41.132Z,4.62
2017-12-17T15:02:08.703Z,3.25
2017-12-17T15:04:37.040Z,4.95
2017-12-17T15:07:04.688Z,5.00
2017-12-17T15:09:32.256Z,4.85
2017-12-17T15:11:59.789Z,4.93
2017-12-17T15:14:27.391Z,5.15
2017-12-17T15:16:54.926Z,4.20
2017-12-17T15:19:22.495Z,4.93
2017-12-17T15:21:50.023Z,4.85
2017-12-17T15:24:17.598Z,4.50
2017-12-17T15:26:45.165Z,4.75
2017-12-17T15:29:12.732Z,5.15
2017-12-17T15:31:40.265Z,5.12
2017-12-17T15:34:07.840Z,4.28
2017-12-17T15:36:35.368Z,4.95
2017-12-17T15:39:03.760Z,5.40
2017-12-17T15:41:31.388Z,4.40
2017-12-17T15:43:58.928Z,4.60
2017-12-17T15:46:26.508Z,4.00
2017-12-17T15:48:54.127Z,4.30
2017-12-17T15:51:21.660Z,4.00
2017-12-17T15:53:49.277Z,4.55
2017-12-17T15:56:16.855Z,4.18
2017-12-17T15:58:45.192Z,4.37
2017-12-17T16:01:12.766Z,4.43
2017-12-17T16:03:40.327Z,4.32
2017-12-17T16:06:07.905Z,4.62
2017-12-17T16:08:35.468Z,5.28
2017-12-17T16:11:03.052Z,4.55
2017-12-17T16:13:30.619Z,4.90
2017-12-17T16:15:58.304Z,4.30
2017-12-17T16:18:25.928Z,4.43
2017-12-17T16:20:54.266Z,5.22
2017-12-17T16:23:21.878Z,4.35
2017-12-17T16:25:49.410Z,4.35
2017-12-17T16:28:17.043Z,4.78
2017-12-17T16:30:44.623Z,4.43
2017-12-17T16:33:12.206Z,4.80
2017-12-17T16:35:40.584Z,3.83
2017-12-17T16:38:08.926Z,5.03
2017-12-17T16:40:36.498Z,4.60
2017-12-17T16:43:04.074Z,4.55
2017-12-17T16:45:32.452Z,4.55
2017-12-17T16:48:00.878Z,4.75
2017-12-17T16:50:28.487Z,4.78
2017-12-17T16:52:56.839Z,4.80
2017-12-17T16:55:24.480Z,4.37
2017-12-17T16:57:52.063Z,5.18
2017-12-17T17:00:19.688Z,5.07
2017-12-17T17:02:47.272Z,5.75
2017-12-17T17:05:14.849Z,5.43
2017-12-17T17:07:42.431Z,5.43
2017-12-17T17:10:10.808Z,5.65
2017-12-17T17:12:39.100Z,5.30
2017-12-17T17:15:07.488Z,7.50
2017-12-17T17:17:35.023Z,5.65
2017-12-17T17:20:03.401Z,5.15
2017-12-17T17:22:31.767Z,5.82
2017-12-17T17:24:59.392Z,5.28
2017-12-17T17:27:26.963Z,5.20
2017-12-17T17:29:54.588Z,4.62
2017-12-17T17:32:22.164Z,4.95
2017-12-17T17:34:49.791Z,3.47
2017-12-17T17:37:18.135Z,4.47
2017-12-17T17:39:45.761Z,4.47
2017-12-17T17:42:13.437Z,4.95
2017-12-17T17:44:41.651Z,3.53
2017-12-17T17:47:09.230Z,4.45
2017-12-17T17:49:37.568Z,4.70
2017-12-17T17:52:05.202Z,4.60
2017-12-17T17:54:32.792Z,4.25
2017-12-17T17:57:00.417Z,4.50
2017-12-17T17:59:28.043Z,4.45
2017-12-17T18:01:56.393Z,4.78
2017-12-17T18:04:24.016Z,5.10
2017-12-17T18:06:51.600Z,5.25
2017-12-17T18:09:19.183Z,5.35
2017-12-17T18:11:46.821Z,5.18
2017-12-17T18:14:14.452Z,4.00
2017-12-17T18:16:42.039Z,5.43
2017-12-17T18:19:09.678Z,4.85
2017-12-17T18:21:37.267Z,5.50
2017-12-17T18:24:04.922Z,4.32
2017-12-17T18:26:34.185Z,5.82
2017-12-17T18:29:01.766Z,5.00
2017-12-17T18:31:29.340Z,6.30
2017-12-17T18:33:56.880Z,4.90
2017-12-17T18:36:24.507Z,5.25
2017-12-17T18:38:52.083Z,5.35
2017-12-17T18:41:20.475Z,4.50
2017-12-17T18:43:48.028Z,5.35
2017-12-17T18:46:15.655Z,4.80
2017-12-17T18:48:43.240Z,5.30
2017-12-17T18:51:11.625Z,5.50
2017-12-17T18:53:39.166Z,4.60
2017-12-17T18:56:07.555Z,5.78
2017-12-17T18:58:35.909Z,5.00
2017-12-17T19:01:03.531Z,5.20
2017-12-17T19:03:31.111Z,4.90
2017-12-17T19:05:58.736Z,5.37
2017-12-17T19:08:26.316Z,5.20
2017-12-17T19:10:53.889Z,5.85
2017-12-17T19:13:21.475Z,6.05
2017-12-17T19:15:49.096Z,6.10
2017-12-17T19:18:16.666Z,6.00
2017-12-17T19:20:44.252Z,5.62
2017-12-17T19:23:11.835Z,6.20
2017-12-17T19:25:40.221Z,5.78
2017-12-17T19:28:08.571Z,5.47
2017-12-17T19:30:36.227Z,5.72
2017-12-17T19:33:03.827Z,6.12
2017-12-17T19:35:31.474Z,5.25
2017-12-17T19:38:00.031Z,5.72
2017-12-17T19:40:27.612Z,5.10
2017-12-17T19:42:55.260Z,5.10
2017-12-17T19:45:22.800Z,5.05
2017-12-17T19:47:50.428Z,5.28
2017-12-17T19:50:18.059Z,4.97
2017-12-17T19:52:46.444Z,5.72
2017-12-17T19:55:14.801Z,15.35
2017-12-17T19:57:42.430Z,5.18
2017-12-17T20:00:10.026Z,6.07
2017-12-17T20:02:37.754Z,5.85
2017-12-17T20:05:05.336Z,5.40
2017-12-17T20:07:32.963Z,5.32
2017-12-17T20:10:00.643Z,5.68
2017-12-17T20:12:28.298Z,5.80
2017-12-17T20:14:55.898Z,6.10
2017-12-17T20:17:23.560Z,5.47
2017-12-17T20:19:51.139Z,5.68
2017-12-17T20:22:19.531Z,5.43
2017-12-17T20:24:47.114Z,5.78
2017-12-17T20:27:14.785Z,5.12
2017-12-17T20:29:42.402Z,5.53
2017-12-17T20:32:10.746Z,5.50
2017-12-17T20:34:38.363Z,5.28
2017-12-17T20:37:05.943Z,5.68
2017-12-17T20:39:33.572Z,5.55
2017-12-17T20:42:01.155Z,6.20
2017-12-17T20:44:28.777Z,6.40
2017-12-17T20:46:57.228Z,5.90
2017-12-17T20:49:24.869Z,5.65
2017-12-17T20:51:52.462Z,6.03
2017-12-17T20:54:20.089Z,6.18
2017-12-17T20:56:47.679Z,6.40
2017-12-17T20:59:15.301Z,6.00
2017-12-17T21:01:42.982Z,6.30
2017-12-17T21:04:10.620Z,5.47
2017-12-17T21:06:38.298Z,6.25
2017-12-17T21:09:05.888Z,5.10
2017-12-17T21:11:33.506Z,5.80
2017-12-17T21:14:01.133Z,6.30
2017-12-17T21:16:29.478Z,5.82
2017-12-17T21:18:57.286Z,5.75
2017-12-17T21:21:24.886Z,5.43
2017-12-17T21:23:52.524Z,6.22
2017-12-17T21:26:20.148Z,5.72
2017-12-17T21:28:49.419Z,5.40
2017-12-17T21:31:17.277Z,5.68
2017-12-17T21:33:44.855Z,5.68
2017-12-17T21:36:12.480Z,5.53
2017-12-17T21:38:40.060Z,5.68
2017-12-17T21:41:07.683Z,4.03
2017-12-17T21:43:35.301Z,5.30
2017-12-17T21:46:02.916Z,4.97
2017-12-17T21:48:30.496Z,4.60
2017-12-17T21:50:58.162Z,5.53
2017-12-17T21:53:25.822Z,6.40
2017-12-17T21:55:53.486Z,5.30
2017-12-17T21:58:21.066Z,5.07
2017-12-17T22:00:48.691Z,4.68
2017-12-17T22:03:16.309Z,5.20
2017-12-17T22:05:43.934Z,5.20
2017-12-17T22:08:11.610Z,4.95
2017-12-17T22:10:39.231Z,5.37
2017-12-17T22:13:06.813Z,5.50
2017-12-17T22:15:34.438Z,5.60
2017-12-17T22:18:02.775Z,4.80
2017-12-17T22:20:30.400Z,5.50
2017-12-17T22:22:58.076Z,5.03
2017-12-17T22:25:25.699Z,5.55
2017-12-17T22:27:54.047Z,4.87
2017-12-17T22:30:21.653Z,4.57
2017-12-17T22:32:49.234Z,5.10
2017-12-17T22:35:16.863Z,5.37
2017-12-17T22:37:45.202Z,5.10
2017-12-17T22:40:12.943Z,5.82
2017-12-17T22:42:40.517Z,4.75
2017-12-17T22:45:08.141Z,4.68
2017-12-17T22:47:35.721Z,5.60
2017-12-17T22:50:03.389Z,5.50
2017-12-17T22:52:30.967Z,5.15
2017-12-17T22:54:58.582Z,5.15
2017-12-17T22:57:26.156Z,4.72
2017-12-17T22:59:53.767Z,5.55
2017-12-17T23:02:21.357Z,4.70
2017-12-17T23:04:48.961Z,5.10
2017-12-17T23:07:16.541Z,5.30
2017-12-17T23:09:44.269Z,4.50
2017-12-17T23:12:11.840Z,5.50
2017-12-17T23:14:39.449Z,5.20
2017-12-17T23:17:07.791Z,5.45
2017-12-17T23:19:35.377Z,5.43
2017-12-17T23:22:03.671Z,4.78
2017-12-17T23:24:32.009Z,4.80
2017-12-17T23:26:59.536Z,4.90
2017-12-17T23:29:27.103Z,5.62
2017-12-17T23:31:54.641Z,4.03
2017-12-17T23:34:22.262Z,5.53
2017-12-17T23:36:49.794Z,5.07
2017-12-17T23:39:17.435Z,4.60
2017-12-17T23:41:44.960Z,5.12
2017-12-17T23:44:13.248Z,5.07
2017-12-17T23:46:40.823Z,4.82
2017-12-17T23:49:08.352Z,5.00
2017-12-17T23:51:36.681Z,4.70
2017-12-17T23:54:04.204Z,5.85
2017-12-17T23:56:31.776Z,5.07
2017-12-17T23:58:59.305Z,6.30
